createdAt,value
2019-04-14T00:02:32.270Z,1.70
2019-04-14T00:07:36.210Z,1.70
2019-04-14T00:12:40.457Z,1.80
2019-04-14T00:17:43.469Z,2.00
2019-04-14T00:22:46.829Z,2.10
2019-04-14T00:27:50.027Z,2.20
2019-04-14T00:32:57.302Z,2.40
2019-04-14T00:38:19.579Z,2.40
2019-04-14T00:43:33.079Z,2.50
2019-04-14T00:48:36.632Z,2.60
2019-04-14T00:53:40.294Z,2.70
2019-04-14T00:58:43.251Z,2.60
2019-04-14T01:03:46.018Z,2.30
2019-04-14T01:08:49.076Z,2.10
2019-04-14T01:13:52.890Z,1.80
2019-04-14T01:18:55.913Z,1.60
2019-04-14T01:23:58.938Z,1.50
2019-04-14T01:29:01.755Z,1.30
2019-04-14T01:34:04.552Z,1.20
2019-04-14T01:39:08.917Z,1.10
2019-04-14T01:44:11.836Z,1.00
2019-04-14T01:49:15.696Z,0.90
2019-04-14T01:54:50.033Z,0.80
2019-04-14T01:59:52.768Z,0.80
2019-04-14T02:04:55.557Z,0.70
2019-04-14T02:09:59.413Z,0.50
2019-04-14T02:15:02.863Z,0.50
2019-04-14T02:20:07.693Z,0.40
2019-04-14T02:25:11.809Z,0.30
2019-04-14T02:30:24.795Z,0.30
2019-04-14T02:41:13.336Z,0.00
2019-04-14T02:45:57.899Z,0.00
2019-04-14T02:51:05.744Z,-0.10
2019-04-14T03:01:23.190Z,-0.30
2019-04-14T03:06:21.652Z,-0.40
2019-04-14T03:11:26.941Z,-0.50
2019-04-14T03:16:44.376Z,-0.50
2019-04-14T03:21:52.739Z,-0.60
2019-04-14T03:27:04.756Z,-0.60
2019-04-14T03:33:32.738Z,-0.80
2019-04-14T03:37:43.406Z,-0.80
2019-04-14T03:42:22.322Z,-0.90
2019-04-14T03:47:31.262Z,-0.90
2019-04-14T03:52:33.273Z,-1.00
2019-04-14T03:57:06.351Z,-1.00
2019-04-14T04:02:09.666Z,-1.10
2019-04-14T04:07:12.614Z,-1.10
2019-04-14T04:12:16.036Z,-1.10
2019-04-14T04:17:31.894Z,-1.10
2019-04-14T04:22:57.072Z,-1.10
2019-04-14T04:28:18.838Z,-1.10
2019-04-14T04:33:39.359Z,-1.10
2019-04-14T04:38:51.416Z,-1.00
2019-04-14T04:43:54.199Z,-1.00
2019-04-14T04:49:07.517Z,-0.90
2019-04-14T04:54:01.773Z,-0.80
2019-04-14T04:59:05.449Z,-0.70
2019-04-14T05:04:09.064Z,-0.70
2019-04-14T05:09:18.855Z,-0.60
2019-04-14T05:14:30.499Z,-0.50
2019-04-14T05:19:36.433Z,-0.30
2019-04-14T05:24:38.170Z,-0.20
2019-04-14T05:29:45.705Z,0.00
2019-04-14T05:34:48.574Z,0.20
2019-04-14T05:39:52.590Z,0.40
2019-04-14T05:44:55.816Z,0.60
2019-04-14T05:50:00.882Z,1.00
2019-04-14T05:55:08.674Z,1.10
2019-04-14T06:00:16.766Z,1.20
2019-04-14T06:05:19.628Z,1.40
2019-04-14T06:10:22.363Z,1.60
2019-04-14T06:15:25.231Z,1.70
2019-04-14T06:20:28.283Z,1.80
2019-04-14T06:25:32.274Z,2.00
2019-04-14T06:30:57.320Z,2.10
2019-04-14T06:36:18.059Z,2.20
2019-04-14T06:41:21.084Z,2.30
2019-04-14T06:46:23.927Z,2.40
2019-04-14T06:51:26.708Z,2.50
2019-04-14T06:56:29.471Z,2.70
2019-04-14T07:01:32.300Z,2.80
2019-04-14T07:06:34.995Z,3.00
2019-04-14T07:11:37.825Z,3.20
2019-04-14T07:16:40.703Z,3.20
2019-04-14T07:21:43.598Z,3.30
2019-04-14T07:26:46.305Z,3.50
2019-04-14T07:32:08.228Z,3.60
2019-04-14T07:37:29.444Z,3.70
2019-04-14T07:42:54.848Z,3.90
2019-04-14T07:48:19.890Z,4.10
2019-04-14T07:54:00.923Z,4.30
2019-04-14T07:59:41.489Z,4.60
2019-04-14T08:04:59.134Z,4.70
2019-04-14T08:10:01.955Z,5.00
2019-04-14T08:15:05.851Z,5.10
2019-04-14T08:20:08.781Z,5.10
2019-04-14T08:25:11.848Z,5.30
2019-04-14T08:30:14.688Z,5.40
2019-04-14T08:35:17.449Z,5.50
2019-04-14T08:40:20.450Z,5.60
2019-04-14T08:45:37.555Z,5.90
2019-04-14T08:50:47.884Z,6.20
2019-04-14T08:56:15.928Z,6.50
2019-04-14T09:01:30.787Z,6.90
2019-04-14T09:06:37.576Z,7.10
2019-04-14T09:11:45.373Z,7.00
2019-04-14T09:16:48.258Z,7.10
2019-04-14T09:21:51.110Z,7.30
2019-04-14T09:26:53.905Z,7.40
2019-04-14T09:31:56.603Z,7.60
2019-04-14T09:36:59.719Z,7.80
2019-04-14T09:42:03.251Z,7.90
2019-04-14T09:47:06.193Z,8.10
2019-04-14T09:52:08.981Z,8.20
2019-04-14T09:57:11.746Z,8.30
2019-04-14T10:02:14.594Z,8.50
2019-04-14T10:07:17.377Z,8.60
2019-04-14T10:12:20.210Z,8.60
2019-04-14T10:17:22.944Z,8.60
2019-04-14T10:22:33.898Z,8.30
2019-04-14T10:27:30.188Z,8.70
2019-04-14T10:32:33.002Z,8.60
2019-04-14T10:37:35.789Z,8.90
2019-04-14T10:42:38.605Z,9.20
2019-04-14T10:47:41.644Z,9.60
2019-04-14T10:52:44.349Z,9.70
2019-04-14T10:57:47.142Z,10.20
2019-04-14T11:02:54.791Z,10.20
2019-04-14T11:07:59.539Z,10.10
2019-04-14T11:13:02.380Z,10.10
2019-04-14T11:18:10.842Z,9.80
2019-04-14T11:23:13.925Z,10.20
2019-04-14T11:28:17.401Z,10.60
2019-04-14T11:33:33.879Z,10.90
2019-04-14T11:38:40.504Z,11.30
2019-04-14T11:43:43.452Z,11.20
2019-04-14T11:48:46.123Z,11.20
2019-04-14T11:53:48.821Z,12.30
2019-04-14T11:58:51.498Z,13.10
2019-04-14T12:03:59.996Z,13.80
2019-04-14T12:09:18.514Z,14.30
2019-04-14T12:14:21.396Z,14.80
2019-04-14T12:19:24.164Z,15.20
2019-04-14T12:24:28.163Z,15.70
2019-04-14T12:29:30.910Z,16.60
2019-04-14T12:34:33.560Z,17.40
2019-04-14T12:39:36.359Z,17.80
2019-04-14T12:44:54.547Z,16.80
2019-04-14T12:49:57.954Z,15.90
2019-04-14T12:55:00.755Z,16.60
2019-04-14T13:00:07.557Z,17.20
2019-04-14T13:05:10.492Z,15.80
2019-04-14T13:10:13.779Z,14.90
2019-04-14T13:15:16.520Z,14.80
2019-04-14T13:20:19.524Z,14.70
2019-04-14T13:25:22.329Z,16.60
2019-04-14T13:30:28.962Z,17.20
2019-04-14T13:35:31.914Z,17.50
2019-04-14T13:40:34.669Z,17.50
2019-04-14T13:45:37.359Z,18.20
2019-04-14T13:50:40.175Z,18.10
2019-04-14T13:55:43.213Z,18.30
2019-04-14T14:00:46.159Z,18.10
2019-04-14T14:05:48.830Z,18.80
2019-04-14T14:10:55.505Z,17.30
2019-04-14T14:16:16.551Z,17.00
2019-04-14T14:21:47.683Z,17.70
2019-04-14T14:26:50.912Z,19.30
2019-04-14T14:31:54.288Z,18.80
2019-04-14T14:36:57.056Z,19.30
2019-04-14T14:41:59.825Z,20.60
2019-04-14T14:47:09.978Z,20.40
2019-04-14T14:52:14.184Z,20.60
2019-04-14T14:57:17.043Z,18.70
2019-04-14T15:02:20.406Z,20.00
2019-04-14T15:08:38.549Z,20.90
2019-04-14T15:13:41.275Z,21.10
2019-04-14T15:18:44.210Z,21.40
2019-04-14T15:23:48.115Z,21.40
2019-04-14T15:28:50.833Z,18.60
2019-04-14T15:33:53.609Z,19.20
2019-04-14T15:38:56.470Z,20.00
2019-04-14T15:43:59.201Z,20.80
2019-04-14T15:49:01.928Z,20.40
2019-04-14T15:54:04.609Z,18.40
2019-04-14T15:59:20.266Z,18.00
2019-04-14T16:04:45.444Z,19.50
2019-04-14T16:09:53.899Z,20.60
2019-04-14T16:15:14.965Z,20.40
2019-04-14T16:20:37.383Z,20.30
2019-04-14T16:25:51.986Z,19.10
2019-04-14T16:31:09.429Z,19.10
2019-04-14T16:36:12.343Z,19.10
2019-04-14T16:41:15.167Z,19.50
2019-04-14T16:46:18.186Z,19.20
2019-04-14T16:51:28.727Z,18.10
2019-04-14T16:56:51.197Z,18.80
2019-04-14T17:01:53.866Z,18.30
2019-04-14T17:06:56.552Z,17.40
2019-04-14T17:11:59.529Z,17.40
2019-04-14T17:17:31.175Z,15.80
2019-04-14T17:23:11.857Z,14.30
2019-04-14T17:28:40.022Z,12.80
2019-04-14T17:33:53.253Z,12.70
2019-04-14T17:39:06.980Z,13.10
2019-04-14T17:44:31.187Z,13.20
2019-04-14T17:49:53.382Z,12.60
2019-04-14T17:55:02.808Z,11.90
2019-04-14T18:00:25.971Z,10.70
2019-04-14T18:05:42.186Z,9.60
2019-04-14T18:11:00.689Z,9.00
2019-04-14T18:16:22.826Z,8.50
2019-04-14T18:21:28.259Z,8.10
2019-04-14T18:26:31.109Z,7.80
2019-04-14T18:31:43.467Z,7.60
2019-04-14T18:37:14.825Z,7.40
2019-04-14T18:42:35.594Z,7.20
2019-04-14T18:48:15.943Z,7.00
2019-04-14T18:53:28.840Z,6.80
2019-04-14T18:58:54.150Z,6.60
2019-04-14T19:03:57.065Z,6.50
2019-04-14T19:08:59.957Z,6.30
2019-04-14T19:14:03.707Z,6.30
2019-04-14T19:19:06.566Z,6.10
2019-04-14T19:24:09.287Z,6.00
2019-04-14T19:29:11.994Z,5.90
2019-04-14T19:34:14.764Z,5.80
2019-04-14T19:39:17.344Z,5.80
2019-04-14T19:44:20.075Z,5.70
2019-04-14T19:49:22.843Z,5.60
2019-04-14T19:54:25.530Z,5.50
2019-04-14T19:59:28.295Z,5.40
2019-04-14T20:04:31.038Z,5.30
2019-04-14T20:09:33.701Z,5.20
2019-04-14T20:14:36.327Z,5.20
2019-04-14T20:19:50.690Z,5.10
2019-04-14T20:24:56.985Z,5.10
2019-04-14T20:30:02.699Z,5.00
2019-04-14T20:35:05.931Z,4.90
2019-04-14T20:40:08.940Z,4.90
2019-04-14T20:45:12.946Z,4.80
2019-04-14T20:50:15.917Z,4.70
2019-04-14T20:55:18.574Z,4.70
2019-04-14T21:00:21.888Z,4.60
2019-04-14T21:05:46.998Z,4.50
2019-04-14T21:11:09.221Z,4.40
2019-04-14T21:16:32.611Z,4.40
2019-04-14T21:21:58.086Z,4.40
2019-04-14T21:27:32.578Z,4.30
2019-04-14T21:32:54.856Z,4.20
2019-04-14T21:38:05.773Z,4.20
2019-04-14T21:43:08.493Z,4.20
2019-04-14T21:48:11.163Z,4.20
2019-04-14T21:53:13.830Z,4.10
2019-04-14T21:58:21.788Z,4.10
2019-04-14T22:03:38.780Z,4.10
2019-04-14T22:08:46.130Z,4.00
2019-04-14T22:13:51.180Z,3.90
2019-04-14T22:18:54.305Z,3.90
2019-04-14T22:24:01.604Z,3.80
2019-04-14T22:29:02.815Z,3.60
2019-04-14T22:34:05.523Z,3.50
2019-04-14T22:39:11.969Z,3.40
2019-04-14T22:44:14.725Z,3.30
2019-04-14T22:49:17.355Z,3.20
2019-04-14T22:54:20.074Z,3.10
2019-04-14T22:59:22.784Z,3.10
2019-04-14T23:04:39.086Z,3.00
2019-04-14T23:09:48.314Z,3.00
2019-04-14T23:15:13.657Z,2.90
2019-04-14T23:20:35.935Z,2.80
2019-04-14T23:25:38.975Z,2.70
2019-04-14T23:30:41.701Z,2.70
2019-04-14T23:35:44.439Z,2.70
2019-04-14T23:40:47.058Z,2.60
2019-04-14T23:45:49.706Z,2.60
2019-04-14T23:50:52.304Z,2.50
2019-04-14T23:55:54.868Z,2.40
